航空気象通報

ウインドサーファーのための航空気象通報による風予報です。

5/14-5/16の航空気象通報

2017年05月15日 00時40分37秒 | TAF
羽田空港
TAF AMD RJTT 141352Z 1413/1518 04008KT 9999 FEW010 BKN015
TEMPO 1418/1422 FEW005 BKN008
BECMG 1421/1423 09006KT
BECMG 1500/1503 19016KT
TEMPO 1503/1509 19022G32KT
BECMG 1512/1515 34006KT
日本時間14日22時-15日06時:040度から8ノットの風
06-08時:風が変化
08-09時:090度から6ノットの風
09-12時:風が変化
12-21時:190度から16ノットの風
但し、15日12-18時の間:ときどき190度から22ノット、突風32ノット
21-24時:風が変化
16日00-03時:340度から6ノットの風


静岡空港
TAF RJNS 141106Z 1412/1518 35004KT 8000 FEW008 BKN015
TEMPO 1415/1418 FEW005 BKN008
TEMPO 1418/1422 4000 BR FEW005 BKN008
BECMG 1500/1503 20008KT
BECMG 1503/1506 27012KT
日本時間14日21時-15日09時:350度から4ノットの風
09-12時:風が変化
12時:200度から8ノットの風
12-15時:風が変化
15時-16日03時:270度から12ノットの風


福岡空港
TAF RJFF 141110Z 1412/1518 25005KT 9999 FEW030
BECMG 1413/1415 18003KT
BECMG 1500/1503 33010KT
BECMG 1509/1512 22005KT
日本時間14日21-22時:250度から5ノットの風
22-24時:風が変化
15日00-09時:180度から3ノットの風
09-12時:風が変化
12-18時:330度から10ノットの風
18-21時:風が変化
21時-16日03時:220度から5ノットの風


那覇空港
TAF ROAH 141105Z 1412/1518 07003KT 9999 FEW010 SCT030
BECMG 1506/1509 10005KT
TEMPO 1509/1515 3000 TSRA FEW006 BKN015 FEW020CB
日本時間14日21時-15日15時:030度から3ノットの風
15-18時:風が変化
18時-16日03時:100度から5ノットの風

但し、15日18-24時の間:ときどき

石垣空港
TAF ROIG 141107Z 1412/1518 10004KT 9999 FEW015 SCT030
BECMG 1503/1506 16008KT
TEMPO 1506/1512 3000 TSRA FEW008 BKN015 FEW020CB
日本時間14日21時-15日12時:100度から4ノットの風
12-15時:風が変化
15時-16日02時:160度から8ノットの風

但し、15日15-21時の間:ときどき

マウイのカフルイ空港
PHOG 141131Z 1412/1512 05014KT P6SM FEW030 SCT050
FM141900 07020G30KT P6SM FEW030 SCT050
FM150800 05014KT P6SM FEW030 SCT050 AMD LTD TO VIS AND WIND TIL 141600
ハワイ時間14日02-09時:050度から14ノットの風
09-22時:070度から20ノット、突風30ノット
22時-12日02時:050度から14ノットの風


サイパン空港
TAF PGSN 141128Z 1412/1512 09015KT P6SM VCSH SCT020 SCT050
マリアナ時間14日22時-15日22時:090度から15ノットの風
ジャンル:
お天気
コメント   この記事についてブログを書く
この記事をはてなブックマークに追加
« 5/13-5/15の航空気象通報 | トップ | 5/15-5/17の航空気象通報 »
最近の画像もっと見る

コメントを投稿

ブログ作成者から承認されるまでコメントは反映されません。

コメント利用規約に同意の上コメント投稿を行ってください。

数字4桁を入力し、投稿ボタンを押してください。

あわせて読む

トラックバック

この記事のトラックバック  Ping-URL
ブログ作成者から承認されるまでトラックバックは反映されません。
  • 30日以上前の記事に対するトラックバックは受け取らないよう設定されております。
  • 送信元の記事内容が半角英数のみのトラックバックは受け取らないよう設定されております。
  • このブログへのリンクがない記事からのトラックバックは受け取らないよう設定されております。
  • ※ブログ管理者のみ、編集画面で設定の変更が可能です。